sensor_id;sensor_type;location;lat;lon;timestamp;P1;durP1;ratioP1;P2;durP2;ratioP2
25932;SDS011;13731;51.166;4.474;2022-09-09T00:06:43;85.28;;;80.63;;
25932;SDS011;13731;51.166;4.474;2022-09-09T00:12:38;81.20;;;77.32;;
25932;SDS011;13731;51.166;4.474;2022-09-09T00:15:18;84.78;;;80.53;;
25932;SDS011;13731;51.166;4.474;2022-09-09T00:20:43;81.65;;;77.45;;
25932;SDS011;13731;51.166;4.474;2022-09-09T00:28:55;70.32;;;66.70;;
25932;SDS011;13731;51.166;4.474;2022-09-09T00:31:25;65.63;;;62.20;;
25932;SDS011;13731;51.166;4.474;2022-09-09T00:33:53;76.88;;;73.03;;
25932;SDS011;13731;51.166;4.474;2022-09-09T00:36:24;76.88;;;73.03;;
25932;SDS011;13731;51.166;4.474;2022-09-09T00:38:56;75.03;;;71.18;;
25932;SDS011;13731;51.166;4.474;2022-09-09T00:44:34;72.25;;;68.65;;
25932;SDS011;13731;51.166;4.474;2022-09-09T00:50:03;74.70;;;70.25;;
25932;SDS011;13731;51.166;4.474;2022-09-09T00:52:47;76.70;;;72.95;;
25932;SDS011;13731;51.166;4.474;2022-09-09T00:58:15;77.70;;;73.57;;
25932;SDS011;13731;51.166;4.474;2022-09-09T01:06:35;72.88;;;68.88;;
25932;SDS011;13731;51.166;4.474;2022-09-09T01:09:16;72.35;;;68.65;;
25932;SDS011;13731;51.166;4.474;2022-09-09T01:14:49;68.22;;;64.32;;
25932;SDS011;13731;51.166;4.474;2022-09-09T01:17:21;71.45;;;67.57;;
25932;SDS011;13731;51.166;4.474;2022-09-09T01:28:27;69.00;;;65.00;;
25932;SDS011;13731;51.166;4.474;2022-09-09T01:31:00;65.18;;;61.72;;
25932;SDS011;13731;51.166;4.474;2022-09-09T01:33:38;72.60;;;68.40;;
25932;SDS011;13731;51.166;4.474;2022-09-09T01:38:55;66.80;;;63.17;;
25932;SDS011;13731;51.166;4.474;2022-09-09T01:41:21;68.40;;;64.70;;
25932;SDS011;13731;51.166;4.474;2022-09-09T01:44:05;61.67;;;58.60;;
25932;SDS011;13731;51.166;4.474;2022-09-09T01:46:36;66.68;;;63.15;;
25932;SDS011;13731;51.166;4.474;2022-09-09T01:49:03;68.68;;;65.15;;
25932;SDS011;13731;51.166;4.474;2022-09-09T01:51:32;67.28;;;63.65;;
25932;SDS011;13731;51.166;4.474;2022-09-09T01:54:02;62.15;;;58.88;;
25932;SDS011;13731;51.166;4.474;2022-09-09T02:05:04;62.67;;;59.33;;
25932;SDS011;13731;51.166;4.474;2022-09-09T02:07:42;60.45;;;57.55;;
25932;SDS011;13731;51.166;4.474;2022-09-09T02:10:31;58.40;;;55.17;;
25932;SDS011;13731;51.166;4.474;2022-09-09T02:13:24;57.42;;;54.17;;
25932;SDS011;13731;51.166;4.474;2022-09-09T02:18:17;64.00;;;60.88;;
25932;SDS011;13731;51.166;4.474;2022-09-09T02:20:50;63.97;;;60.70;;
25932;SDS011;13731;51.166;4.474;2022-09-09T02:23:17;68.50;;;65.03;;
25932;SDS011;13731;51.166;4.474;2022-09-09T02:25:46;69.82;;;66.07;;
25932;SDS011;13731;51.166;4.474;2022-09-09T02:28:20;69.93;;;66.63;;
25932;SDS011;13731;51.166;4.474;2022-09-09T02:30:50;68.32;;;64.65;;
25932;SDS011;13731;51.166;4.474;2022-09-09T02:33:25;66.85;;;63.30;;
25932;SDS011;13731;51.166;4.474;2022-09-09T02:35:55;68.70;;;65.47;;
25932;SDS011;13731;51.166;4.474;2022-09-09T02:38:29;66.95;;;63.63;;
25932;SDS011;13731;51.166;4.474;2022-09-09T02:41:05;67.57;;;64.07;;
25932;SDS011;13731;51.166;4.474;2022-09-09T02:43:33;78.20;;;74.13;;
25932;SDS011;13731;51.166;4.474;2022-09-09T02:51:10;57.67;;;54.72;;
25932;SDS011;13731;51.166;4.474;2022-09-09T02:56:19;62.63;;;59.50;;
25932;SDS011;13731;51.166;4.474;2022-09-09T02:58:47;67.72;;;64.32;;
25932;SDS011;13731;51.166;4.474;2022-09-09T03:01:16;77.07;;;73.38;;
25932;SDS011;13731;51.166;4.474;2022-09-09T03:03:42;79.10;;;75.03;;
25932;SDS011;13731;51.166;4.474;2022-09-09T03:06:13;81.82;;;77.38;;
25932;SDS011;13731;51.166;4.474;2022-09-09T03:08:40;77.13;;;72.75;;
25932;SDS011;13731;51.166;4.474;2022-09-09T03:11:07;84.20;;;79.70;;
25932;SDS011;13731;51.166;4.474;2022-09-09T03:13:36;80.80;;;75.87;;
25932;SDS011;13731;51.166;4.474;2022-09-09T03:16:03;81.45;;;76.72;;
25932;SDS011;13731;51.166;4.474;2022-09-09T03:18:33;80.45;;;75.93;;
25932;SDS011;13731;51.166;4.474;2022-09-09T03:21:00;86.07;;;81.50;;
25932;SDS011;13731;51.166;4.474;2022-09-09T03:23:27;76.45;;;71.35;;
25932;SDS011;13731;51.166;4.474;2022-09-09T03:25:53;78.25;;;74.00;;
25932;SDS011;13731;51.166;4.474;2022-09-09T03:28:28;77.40;;;72.85;;
25932;SDS011;13731;51.166;4.474;2022-09-09T03:33:24;55.03;;;52.08;;
25932;SDS011;13731;51.166;4.474;2022-09-09T03:35:51;73.32;;;69.40;;
25932;SDS011;13731;51.166;4.474;2022-09-09T03:38:19;72.03;;;68.18;;
25932;SDS011;13731;51.166;4.474;2022-09-09T03:40:52;83.05;;;78.40;;
25932;SDS011;13731;51.166;4.474;2022-09-09T03:43:21;81.90;;;77.22;;
25932;SDS011;13731;51.166;4.474;2022-09-09T03:45:50;82.25;;;77.13;;
25932;SDS011;13731;51.166;4.474;2022-09-09T03:48:16;88.28;;;83.55;;
25932;SDS011;13731;51.166;4.474;2022-09-09T03:50:46;97.47;;;92.45;;
25932;SDS011;13731;51.166;4.474;2022-09-09T03:53:14;108.03;;;101.88;;
25932;SDS011;13731;51.166;4.474;2022-09-09T03:55:44;117.80;;;111.10;;
25932;SDS011;13731;51.166;4.474;2022-09-09T03:58:15;112.28;;;105.75;;
25932;SDS011;13731;51.166;4.474;2022-09-09T04:00:52;124.25;;;117.68;;
25932;SDS011;13731;51.166;4.474;2022-09-09T04:03:23;117.87;;;110.90;;
25932;SDS011;13731;51.166;4.474;2022-09-09T04:05:53;126.55;;;119.47;;
25932;SDS011;13731;51.166;4.474;2022-09-09T04:08:22;124.57;;;117.30;;
25932;SDS011;13731;51.166;4.474;2022-09-09T04:10:51;129.98;;;123.53;;
25932;SDS011;13731;51.166;4.474;2022-09-09T04:13:18;120.40;;;113.38;;
25932;SDS011;13731;51.166;4.474;2022-09-09T04:15:53;118.15;;;111.35;;
25932;SDS011;13731;51.166;4.474;2022-09-09T04:18:20;134.20;;;126.20;;
25932;SDS011;13731;51.166;4.474;2022-09-09T04:20:51;116.47;;;109.70;;
25932;SDS011;13731;51.166;4.474;2022-09-09T04:23:20;126.20;;;119.35;;
25932;SDS011;13731;51.166;4.474;2022-09-09T04:25:50;108.82;;;102.85;;
25932;SDS011;13731;51.166;4.474;2022-09-09T04:28:19;116.82;;;110.10;;
25932;SDS011;13731;51.166;4.474;2022-09-09T04:30:47;142.35;;;134.80;;
25932;SDS011;13731;51.166;4.474;2022-09-09T04:33:13;110.63;;;104.10;;
25932;SDS011;13731;51.166;4.474;2022-09-09T04:35:44;133.75;;;126.32;;
25932;SDS011;13731;51.166;4.474;2022-09-09T04:38:14;165.30;;;156.25;;
25932;SDS011;13731;51.166;4.474;2022-09-09T04:40:44;129.35;;;122.45;;
25932;SDS011;13731;51.166;4.474;2022-09-09T04:43:13;109.07;;;102.95;;
25932;SDS011;13731;51.166;4.474;2022-09-09T04:45:42;126.35;;;119.25;;
25932;SDS011;13731;51.166;4.474;2022-09-09T04:48:09;145.50;;;137.45;;
25932;SDS011;13731;51.166;4.474;2022-09-09T04:50:35;124.55;;;118.30;;
25932;SDS011;13731;51.166;4.474;2022-09-09T04:53:02;118.18;;;111.75;;
25932;SDS011;13731;51.166;4.474;2022-09-09T04:55:30;126.43;;;119.78;;
25932;SDS011;13731;51.166;4.474;2022-09-09T04:57:57;137.90;;;130.63;;
25932;SDS011;13731;51.166;4.474;2022-09-09T05:00:26;116.78;;;110.30;;
25932;SDS011;13731;51.166;4.474;2022-09-09T05:02:53;125.10;;;117.75;;
25932;SDS011;13731;51.166;4.474;2022-09-09T05:05:19;119.10;;;112.63;;
25932;SDS011;13731;51.166;4.474;2022-09-09T05:07:47;118.50;;;112.00;;
25932;SDS011;13731;51.166;4.474;2022-09-09T05:10:14;136.18;;;129.00;;
25932;SDS011;13731;51.166;4.474;2022-09-09T05:12:40;133.20;;;125.97;;
25932;SDS011;13731;51.166;4.474;2022-09-09T05:15:06;126.32;;;119.13;;
25932;SDS011;13731;51.166;4.474;2022-09-09T05:17:33;139.73;;;131.57;;
25932;SDS011;13731;51.166;4.474;2022-09-09T05:19:59;130.40;;;122.80;;
25932;SDS011;13731;51.166;4.474;2022-09-09T05:22:25;131.45;;;124.13;;
25932;SDS011;13731;51.166;4.474;2022-09-09T05:24:52;176.60;;;166.38;;
25932;SDS011;13731;51.166;4.474;2022-09-09T05:27:18;137.15;;;130.02;;
25932;SDS011;13731;51.166;4.474;2022-09-09T05:29:46;124.47;;;117.38;;
25932;SDS011;13731;51.166;4.474;2022-09-09T05:32:13;162.25;;;152.15;;
25932;SDS011;13731;51.166;4.474;2022-09-09T05:34:44;135.98;;;128.55;;
25932;SDS011;13731;51.166;4.474;2022-09-09T05:37:11;143.90;;;135.50;;
25932;SDS011;13731;51.166;4.474;2022-09-09T05:39:36;211.40;;;199.43;;
25932;SDS011;13731;51.166;4.474;2022-09-09T05:42:03;139.30;;;131.98;;
25932;SDS011;13731;51.166;4.474;2022-09-09T05:44:31;123.47;;;116.70;;
25932;SDS011;13731;51.166;4.474;2022-09-09T05:46:59;122.88;;;116.00;;
25932;SDS011;13731;51.166;4.474;2022-09-09T05:49:25;133.38;;;125.88;;
25932;SDS011;13731;51.166;4.474;2022-09-09T05:51:51;127.78;;;120.75;;
25932;SDS011;13731;51.166;4.474;2022-09-09T05:54:19;150.48;;;142.35;;
25932;SDS011;13731;51.166;4.474;2022-09-09T05:56:49;142.18;;;133.82;;
25932;SDS011;13731;51.166;4.474;2022-09-09T05:59:16;119.03;;;112.13;;
25932;SDS011;13731;51.166;4.474;2022-09-09T06:01:42;124.45;;;118.13;;
25932;SDS011;13731;51.166;4.474;2022-09-09T06:04:17;118.18;;;111.75;;
25932;SDS011;13731;51.166;4.474;2022-09-09T06:06:43;113.97;;;107.82;;
25932;SDS011;13731;51.166;4.474;2022-09-09T06:09:12;74.32;;;69.78;;
25932;SDS011;13731;51.166;4.474;2022-09-09T06:11:41;72.28;;;68.22;;
25932;SDS011;13731;51.166;4.474;2022-09-09T06:14:08;80.25;;;75.40;;
25932;SDS011;13731;51.166;4.474;2022-09-09T06:16:35;91.22;;;85.57;;
25932;SDS011;13731;51.166;4.474;2022-09-09T06:19:21;75.38;;;70.68;;
25932;SDS011;13731;51.166;4.474;2022-09-09T06:21:47;77.93;;;73.60;;
25932;SDS011;13731;51.166;4.474;2022-09-09T06:24:15;64.18;;;59.83;;
25932;SDS011;13731;51.166;4.474;2022-09-09T06:26:43;55.00;;;51.90;;
25932;SDS011;13731;51.166;4.474;2022-09-09T06:29:14;150.15;;;141.63;;
25932;SDS011;13731;51.166;4.474;2022-09-09T06:31:41;67.70;;;63.67;;
25932;SDS011;13731;51.166;4.474;2022-09-09T06:34:17;52.17;;;48.95;;
25932;SDS011;13731;51.166;4.474;2022-09-09T06:36:47;63.03;;;59.22;;
25932;SDS011;13731;51.166;4.474;2022-09-09T06:39:13;55.58;;;51.83;;
25932;SDS011;13731;51.166;4.474;2022-09-09T06:41:41;72.10;;;67.78;;
25932;SDS011;13731;51.166;4.474;2022-09-09T06:44:17;389.63;;;363.10;;
25932;SDS011;13731;51.166;4.474;2022-09-09T06:46:44;49.83;;;44.78;;
25932;SDS011;13731;51.166;4.474;2022-09-09T06:49:13;53.50;;;50.42;;
25932;SDS011;13731;51.166;4.474;2022-09-09T06:51:40;49.83;;;46.65;;
25932;SDS011;13731;51.166;4.474;2022-09-09T06:54:11;44.65;;;41.78;;
25932;SDS011;13731;51.166;4.474;2022-09-09T06:56:38;62.25;;;58.60;;
25932;SDS011;13731;51.166;4.474;2022-09-09T06:59:15;43.70;;;41.08;;
25932;SDS011;13731;51.166;4.474;2022-09-09T07:01:42;41.10;;;38.55;;
25932;SDS011;13731;51.166;4.474;2022-09-09T07:04:17;33.40;;;30.02;;
25932;SDS011;13731;51.166;4.474;2022-09-09T07:06:44;37.53;;;34.95;;
25932;SDS011;13731;51.166;4.474;2022-09-09T07:09:18;32.58;;;30.63;;
25932;SDS011;13731;51.166;4.474;2022-09-09T07:11:48;30.73;;;28.08;;
25932;SDS011;13731;51.166;4.474;2022-09-09T07:14:18;33.70;;;30.90;;
25932;SDS011;13731;51.166;4.474;2022-09-09T07:16:47;35.58;;;32.78;;
25932;SDS011;13731;51.166;4.474;2022-09-09T07:19:15;48.72;;;45.47;;
25932;SDS011;13731;51.166;4.474;2022-09-09T07:21:43;33.75;;;31.45;;
25932;SDS011;13731;51.166;4.474;2022-09-09T07:24:12;40.67;;;37.65;;
25932;SDS011;13731;51.166;4.474;2022-09-09T07:26:40;47.60;;;44.42;;
25932;SDS011;13731;51.166;4.474;2022-09-09T07:29:07;68.88;;;64.55;;
25932;SDS011;13731;51.166;4.474;2022-09-09T07:31:35;53.72;;;50.30;;
25932;SDS011;13731;51.166;4.474;2022-09-09T07:34:05;138.20;;;131.25;;
25932;SDS011;13731;51.166;4.474;2022-09-09T07:36:34;83.70;;;78.88;;
25932;SDS011;13731;51.166;4.474;2022-09-09T07:39:10;83.57;;;78.68;;
25932;SDS011;13731;51.166;4.474;2022-09-09T07:41:41;70.22;;;65.90;;
25932;SDS011;13731;51.166;4.474;2022-09-09T07:44:11;156.55;;;148.60;;
25932;SDS011;13731;51.166;4.474;2022-09-09T07:46:40;159.88;;;151.77;;
25932;SDS011;13731;51.166;4.474;2022-09-09T07:49:09;97.30;;;92.15;;
25932;SDS011;13731;51.166;4.474;2022-09-09T07:51:40;106.22;;;100.75;;
25932;SDS011;13731;51.166;4.474;2022-09-09T07:54:09;110.78;;;104.60;;
25932;SDS011;13731;51.166;4.474;2022-09-09T07:56:39;157.10;;;148.48;;
25932;SDS011;13731;51.166;4.474;2022-09-09T07:59:06;109.78;;;103.43;;
25932;SDS011;13731;51.166;4.474;2022-09-09T08:01:43;67.28;;;63.65;;
25932;SDS011;13731;51.166;4.474;2022-09-09T08:04:13;86.43;;;81.47;;
25932;SDS011;13731;51.166;4.474;2022-09-09T08:06:43;64.32;;;60.58;;
25932;SDS011;13731;51.166;4.474;2022-09-09T08:09:20;108.65;;;103.03;;
25932;SDS011;13731;51.166;4.474;2022-09-09T08:11:47;210.38;;;197.50;;
25932;SDS011;13731;51.166;4.474;2022-09-09T08:14:13;83.28;;;79.00;;
25932;SDS011;13731;51.166;4.474;2022-09-09T08:16:42;67.95;;;63.95;;
25932;SDS011;13731;51.166;4.474;2022-09-09T08:19:12;65.07;;;61.22;;
25932;SDS011;13731;51.166;4.474;2022-09-09T08:21:40;192.75;;;180.57;;
25932;SDS011;13731;51.166;4.474;2022-09-09T08:24:07;63.72;;;59.80;;
25932;SDS011;13731;51.166;4.474;2022-09-09T08:26:39;73.93;;;70.00;;
25932;SDS011;13731;51.166;4.474;2022-09-09T08:29:09;75.32;;;71.18;;
25932;SDS011;13731;51.166;4.474;2022-09-09T08:31:38;82.22;;;77.95;;
25932;SDS011;13731;51.166;4.474;2022-09-09T08:36:35;49.08;;;46.10;;
25932;SDS011;13731;51.166;4.474;2022-09-09T08:39:08;58.63;;;55.38;;
25932;SDS011;13731;51.166;4.474;2022-09-09T08:57:13;60.25;;;57.03;;
25932;SDS011;13731;51.166;4.474;2022-09-09T08:59:44;58.92;;;55.65;;
25932;SDS011;13731;51.166;4.474;2022-09-09T09:05:04;99.85;;;94.97;;
25932;SDS011;13731;51.166;4.474;2022-09-09T09:07:44;83.18;;;78.65;;
25932;SDS011;13731;51.166;4.474;2022-09-09T09:13:06;92.43;;;87.57;;
25932;SDS011;13731;51.166;4.474;2022-09-09T09:15:58;305.67;;;286.95;;
25932;SDS011;13731;51.166;4.474;2022-09-09T09:18:30;141.60;;;134.52;;
25932;SDS011;13731;51.166;4.474;2022-09-09T09:23:55;46.88;;;43.85;;
25932;SDS011;13731;51.166;4.474;2022-09-09T09:26:25;40.03;;;37.40;;
25932;SDS011;13731;51.166;4.474;2022-09-09T09:29:12;39.28;;;36.83;;
25932;SDS011;13731;51.166;4.474;2022-09-09T09:32:15;38.42;;;36.40;;
25932;SDS011;13731;51.166;4.474;2022-09-09T09:34:35;33.70;;;31.02;;
25932;SDS011;13731;51.166;4.474;2022-09-09T09:37:01;35.80;;;33.70;;
25932;SDS011;13731;51.166;4.474;2022-09-09T09:39:30;38.00;;;35.35;;
25932;SDS011;13731;51.166;4.474;2022-09-09T09:42:12;39.83;;;37.35;;
25932;SDS011;13731;51.166;4.474;2022-09-09T09:44:43;60.75;;;57.45;;
25932;SDS011;13731;51.166;4.474;2022-09-09T09:47:14;98.22;;;92.68;;
25932;SDS011;13731;51.166;4.474;2022-09-09T09:49:56;78.85;;;74.53;;
25932;SDS011;13731;51.166;4.474;2022-09-09T09:52:26;80.55;;;75.95;;
25932;SDS011;13731;51.166;4.474;2022-09-09T09:54:54;55.20;;;51.90;;
25932;SDS011;13731;51.166;4.474;2022-09-09T09:57:24;29.52;;;27.33;;
25932;SDS011;13731;51.166;4.474;2022-09-09T10:00:04;32.60;;;29.98;;
25932;SDS011;13731;51.166;4.474;2022-09-09T10:02:43;32.33;;;30.25;;
25932;SDS011;13731;51.166;4.474;2022-09-09T10:05:18;30.92;;;29.00;;
25932;SDS011;13731;51.166;4.474;2022-09-09T10:08:08;37.10;;;34.78;;
25932;SDS011;13731;51.166;4.474;2022-09-09T10:10:48;44.00;;;41.13;;
25932;SDS011;13731;51.166;4.474;2022-09-09T10:13:24;35.58;;;33.13;;
25932;SDS011;13731;51.166;4.474;2022-09-09T10:16:01;114.50;;;108.45;;
25932;SDS011;13731;51.166;4.474;2022-09-09T10:27:02;117.20;;;111.30;;
25932;SDS011;13731;51.166;4.474;2022-09-09T10:35:04;111.45;;;105.47;;
25932;SDS011;13731;51.166;4.474;2022-09-09T10:42:59;75.95;;;71.75;;
25932;SDS011;13731;51.166;4.474;2022-09-09T10:45:33;70.32;;;66.57;;
25932;SDS011;13731;51.166;4.474;2022-09-09T10:48:12;68.45;;;64.85;;
25932;SDS011;13731;51.166;4.474;2022-09-09T10:51:10;58.72;;;55.33;;
25932;SDS011;13731;51.166;4.474;2022-09-09T10:56:32;148.70;;;140.45;;
25932;SDS011;13731;51.166;4.474;2022-09-09T10:59:00;63.97;;;60.53;;
25932;SDS011;13731;51.166;4.474;2022-09-09T11:07:11;49.38;;;46.78;;
25932;SDS011;13731;51.166;4.474;2022-09-09T11:09:42;43.15;;;41.03;;
25932;SDS011;13731;51.166;4.474;2022-09-09T11:12:15;90.97;;;86.13;;
25932;SDS011;13731;51.166;4.474;2022-09-09T11:14:45;39.63;;;37.55;;
25932;SDS011;13731;51.166;4.474;2022-09-09T11:17:24;42.08;;;39.67;;
25932;SDS011;13731;51.166;4.474;2022-09-09T11:19:58;37.85;;;35.95;;
25932;SDS011;13731;51.166;4.474;2022-09-09T11:27:37;39.47;;;36.28;;
25932;SDS011;13731;51.166;4.474;2022-09-09T11:30:14;51.33;;;48.63;;
25932;SDS011;13731;51.166;4.474;2022-09-09T11:32:58;29.75;;;27.80;;
25932;SDS011;13731;51.166;4.474;2022-09-09T11:40:55;31.45;;;29.63;;
25932;SDS011;13731;51.166;4.474;2022-09-09T11:43:42;33.45;;;31.75;;
25932;SDS011;13731;51.166;4.474;2022-09-09T11:46:11;38.28;;;36.25;;
25932;SDS011;13731;51.166;4.474;2022-09-09T11:48:44;45.55;;;42.10;;
25932;SDS011;13731;51.166;4.474;2022-09-09T11:56:29;38.13;;;36.10;;
25932;SDS011;13731;51.166;4.474;2022-09-09T11:59:00;17.00;;;16.02;;
25932;SDS011;13731;51.166;4.474;2022-09-09T12:02:09;33.35;;;31.45;;
25932;SDS011;13731;51.166;4.474;2022-09-09T12:04:40;40.42;;;37.90;;
25932;SDS011;13731;51.166;4.474;2022-09-09T12:09:55;42.80;;;40.55;;
25932;SDS011;13731;51.166;4.474;2022-09-09T12:12:38;39.63;;;37.80;;
25932;SDS011;13731;51.166;4.474;2022-09-09T12:17:44;20.00;;;18.70;;
25932;SDS011;13731;51.166;4.474;2022-09-09T12:20:23;19.63;;;18.48;;
25932;SDS011;13731;51.166;4.474;2022-09-09T12:28:18;22.73;;;21.55;;
25932;SDS011;13731;51.166;4.474;2022-09-09T12:33:38;17.38;;;16.33;;
25932;SDS011;13731;51.166;4.474;2022-09-09T12:36:17;18.25;;;17.17;;
25932;SDS011;13731;51.166;4.474;2022-09-09T12:38:46;17.73;;;16.75;;
25932;SDS011;13731;51.166;4.474;2022-09-09T12:41:23;19.20;;;17.65;;
25932;SDS011;13731;51.166;4.474;2022-09-09T12:43:50;19.48;;;18.35;;
25932;SDS011;13731;51.166;4.474;2022-09-09T12:46:26;23.48;;;22.23;;
25932;SDS011;13731;51.166;4.474;2022-09-09T12:49:01;21.65;;;20.25;;
25932;SDS011;13731;51.166;4.474;2022-09-09T12:51:28;16.17;;;14.95;;
25932;SDS011;13731;51.166;4.474;2022-09-09T12:53:58;15.38;;;14.48;;
25932;SDS011;13731;51.166;4.474;2022-09-09T12:56:28;16.67;;;15.75;;
25932;SDS011;13731;51.166;4.474;2022-09-09T12:58:56;16.35;;;15.55;;
25932;SDS011;13731;51.166;4.474;2022-09-09T13:03:49;31.85;;;30.25;;
25932;SDS011;13731;51.166;4.474;2022-09-09T13:06:26;41.85;;;39.88;;
25932;SDS011;13731;51.166;4.474;2022-09-09T13:08:57;36.83;;;34.83;;
25932;SDS011;13731;51.166;4.474;2022-09-09T13:14:01;46.28;;;44.08;;
25932;SDS011;13731;51.166;4.474;2022-09-09T13:16:28;38.88;;;36.97;;
25932;SDS011;13731;51.166;4.474;2022-09-09T13:21:41;38.35;;;36.50;;
25932;SDS011;13731;51.166;4.474;2022-09-09T13:26:57;32.00;;;30.40;;
25932;SDS011;13731;51.166;4.474;2022-09-09T13:29:28;27.80;;;26.42;;
25932;SDS011;13731;51.166;4.474;2022-09-09T13:32:05;32.55;;;30.85;;
25932;SDS011;13731;51.166;4.474;2022-09-09T13:34:37;43.53;;;41.55;;
25932;SDS011;13731;51.166;4.474;2022-09-09T13:37:22;54.60;;;52.05;;
25932;SDS011;13731;51.166;4.474;2022-09-09T13:39:59;74.35;;;70.88;;
25932;SDS011;13731;51.166;4.474;2022-09-09T13:42:28;60.40;;;57.53;;
25932;SDS011;13731;51.166;4.474;2022-09-09T13:44:56;53.58;;;50.88;;
25932;SDS011;13731;51.166;4.474;2022-09-09T13:47:43;101.15;;;96.45;;
25932;SDS011;13731;51.166;4.474;2022-09-09T13:50:20;58.70;;;55.58;;
25932;SDS011;13731;51.166;4.474;2022-09-09T13:52:49;52.35;;;49.80;;
25932;SDS011;13731;51.166;4.474;2022-09-09T13:55:18;69.10;;;65.80;;
25932;SDS011;13731;51.166;4.474;2022-09-09T13:57:55;75.38;;;71.80;;
25932;SDS011;13731;51.166;4.474;2022-09-09T14:00:23;92.25;;;88.00;;
25932;SDS011;13731;51.166;4.474;2022-09-09T14:02:50;138.27;;;131.73;;
25932;SDS011;13731;51.166;4.474;2022-09-09T14:05:17;95.32;;;90.93;;
25932;SDS011;13731;51.166;4.474;2022-09-09T14:07:44;70.80;;;67.57;;
25932;SDS011;13731;51.166;4.474;2022-09-09T14:10:11;63.97;;;61.00;;
25932;SDS011;13731;51.166;4.474;2022-09-09T14:12:37;41.58;;;39.35;;
25932;SDS011;13731;51.166;4.474;2022-09-09T14:15:04;31.92;;;30.33;;
25932;SDS011;13731;51.166;4.474;2022-09-09T14:17:31;21.38;;;20.38;;
25932;SDS011;13731;51.166;4.474;2022-09-09T14:19:58;21.15;;;20.15;;
25932;SDS011;13731;51.166;4.474;2022-09-09T14:22:24;21.80;;;20.45;;
25932;SDS011;13731;51.166;4.474;2022-09-09T14:24:50;19.27;;;18.25;;
25932;SDS011;13731;51.166;4.474;2022-09-09T14:27:17;19.60;;;18.38;;
25932;SDS011;13731;51.166;4.474;2022-09-09T14:29:44;20.70;;;19.50;;
25932;SDS011;13731;51.166;4.474;2022-09-09T14:32:10;18.50;;;17.60;;
25932;SDS011;13731;51.166;4.474;2022-09-09T14:34:36;20.10;;;19.13;;
25932;SDS011;13731;51.166;4.474;2022-09-09T14:37:03;18.98;;;17.65;;
25932;SDS011;13731;51.166;4.474;2022-09-09T14:39:29;24.35;;;22.95;;
25932;SDS011;13731;51.166;4.474;2022-09-09T14:41:55;26.50;;;25.20;;
25932;SDS011;13731;51.166;4.474;2022-09-09T14:44:21;37.60;;;35.78;;
25932;SDS011;13731;51.166;4.474;2022-09-09T14:46:47;79.00;;;75.35;;
25932;SDS011;13731;51.166;4.474;2022-09-09T14:49:16;84.47;;;80.77;;
25932;SDS011;13731;51.166;4.474;2022-09-09T14:51:41;72.40;;;68.95;;
25932;SDS011;13731;51.166;4.474;2022-09-09T14:54:07;112.18;;;107.07;;
25932;SDS011;13731;51.166;4.474;2022-09-09T14:56:33;150.07;;;142.88;;
25932;SDS011;13731;51.166;4.474;2022-09-09T14:58:59;138.88;;;132.27;;
25932;SDS011;13731;51.166;4.474;2022-09-09T15:01:26;80.35;;;76.68;;
25932;SDS011;13731;51.166;4.474;2022-09-09T15:03:54;72.22;;;68.90;;
25932;SDS011;13731;51.166;4.474;2022-09-09T15:06:25;135.98;;;129.40;;
25932;SDS011;13731;51.166;4.474;2022-09-09T15:08:52;88.50;;;84.40;;
25932;SDS011;13731;51.166;4.474;2022-09-09T15:11:19;86.25;;;82.50;;
25932;SDS011;13731;51.166;4.474;2022-09-09T15:13:47;81.72;;;78.07;;
25932;SDS011;13731;51.166;4.474;2022-09-09T15:16:17;91.00;;;86.88;;
25932;SDS011;13731;51.166;4.474;2022-09-09T15:18:44;75.63;;;72.28;;
25932;SDS011;13731;51.166;4.474;2022-09-09T15:21:16;50.55;;;48.33;;
25932;SDS011;13731;51.166;4.474;2022-09-09T15:23:47;45.60;;;43.58;;
25932;SDS011;13731;51.166;4.474;2022-09-09T15:26:13;32.97;;;31.35;;
25932;SDS011;13731;51.166;4.474;2022-09-09T15:28:40;24.38;;;22.75;;
25932;SDS011;13731;51.166;4.474;2022-09-09T15:31:16;21.23;;;20.03;;
25932;SDS011;13731;51.166;4.474;2022-09-09T15:33:59;20.42;;;19.40;;
25932;SDS011;13731;51.166;4.474;2022-09-09T15:36:27;23.33;;;22.17;;
25932;SDS011;13731;51.166;4.474;2022-09-09T15:38:54;27.45;;;26.15;;
25932;SDS011;13731;51.166;4.474;2022-09-09T15:41:21;32.55;;;31.05;;
25932;SDS011;13731;51.166;4.474;2022-09-09T15:43:48;33.95;;;32.25;;
25932;SDS011;13731;51.166;4.474;2022-09-09T15:49:05;67.05;;;64.03;;
25932;SDS011;13731;51.166;4.474;2022-09-09T15:51:46;60.85;;;58.03;;
25932;SDS011;13731;51.166;4.474;2022-09-09T15:54:14;94.18;;;89.85;;
25932;SDS011;13731;51.166;4.474;2022-09-09T15:56:46;30.75;;;29.25;;
25932;SDS011;13731;51.166;4.474;2022-09-09T15:59:15;21.13;;;19.92;;
25932;SDS011;13731;51.166;4.474;2022-09-09T16:01:41;30.13;;;28.63;;
25932;SDS011;13731;51.166;4.474;2022-09-09T16:04:08;31.80;;;30.38;;
25932;SDS011;13731;51.166;4.474;2022-09-09T16:06:34;27.75;;;26.20;;
25932;SDS011;13731;51.166;4.474;2022-09-09T16:09:00;25.95;;;24.60;;
25932;SDS011;13731;51.166;4.474;2022-09-09T16:11:30;33.45;;;31.73;;
25932;SDS011;13731;51.166;4.474;2022-09-09T16:13:57;40.50;;;37.38;;
25932;SDS011;13731;51.166;4.474;2022-09-09T16:16:25;53.95;;;50.97;;
25932;SDS011;13731;51.166;4.474;2022-09-09T16:18:53;62.67;;;59.42;;
25932;SDS011;13731;51.166;4.474;2022-09-09T16:21:22;76.78;;;73.07;;
25932;SDS011;13731;51.166;4.474;2022-09-09T16:23:49;84.13;;;80.07;;
25932;SDS011;13731;51.166;4.474;2022-09-09T16:26:17;96.53;;;91.97;;
25932;SDS011;13731;51.166;4.474;2022-09-09T16:28:43;101.68;;;97.05;;
25932;SDS011;13731;51.166;4.474;2022-09-09T16:31:13;121.07;;;115.47;;
25932;SDS011;13731;51.166;4.474;2022-09-09T16:33:42;112.00;;;106.80;;
25932;SDS011;13731;51.166;4.474;2022-09-09T16:36:10;118.00;;;112.40;;
25932;SDS011;13731;51.166;4.474;2022-09-09T16:38:41;120.50;;;115.05;;
25932;SDS011;13731;51.166;4.474;2022-09-09T16:41:10;121.40;;;115.70;;
25932;SDS011;13731;51.166;4.474;2022-09-09T16:43:37;124.82;;;118.88;;
25932;SDS011;13731;51.166;4.474;2022-09-09T16:46:15;109.05;;;103.85;;
25932;SDS011;13731;51.166;4.474;2022-09-09T16:48:43;115.13;;;109.53;;
25932;SDS011;13731;51.166;4.474;2022-09-09T16:51:12;114.57;;;109.30;;
25932;SDS011;13731;51.166;4.474;2022-09-09T16:53:47;104.50;;;99.60;;
25932;SDS011;13731;51.166;4.474;2022-09-09T16:56:17;108.93;;;103.60;;
25932;SDS011;13731;51.166;4.474;2022-09-09T16:58:54;101.57;;;96.55;;
25932;SDS011;13731;51.166;4.474;2022-09-09T17:01:25;94.93;;;90.50;;
25932;SDS011;13731;51.166;4.474;2022-09-09T17:03:55;93.65;;;89.10;;
25932;SDS011;13731;51.166;4.474;2022-09-09T17:06:23;81.10;;;77.25;;
25932;SDS011;13731;51.166;4.474;2022-09-09T17:08:56;86.22;;;82.00;;
25932;SDS011;13731;51.166;4.474;2022-09-09T17:11:24;101.88;;;97.00;;
25932;SDS011;13731;51.166;4.474;2022-09-09T17:13:50;184.43;;;175.38;;
25932;SDS011;13731;51.166;4.474;2022-09-09T17:18:50;197.90;;;188.38;;
25932;SDS011;13731;51.166;4.474;2022-09-09T17:21:18;165.20;;;157.43;;